sensor_id;sensor_type;location;lat;lon;timestamp;temperature;humidity
13344;DHT22;6741;48.964;9.406;2024-01-30T00:02:01;0.70;99.90
13344;DHT22;6741;48.964;9.406;2024-01-30T00:04:27;0.50;99.90
13344;DHT22;6741;48.964;9.406;2024-01-30T00:06:54;0.40;99.90
13344;DHT22;6741;48.964;9.406;2024-01-30T00:09:21;0.40;99.90
13344;DHT22;6741;48.964;9.406;2024-01-30T00:11:50;0.30;99.90
13344;DHT22;6741;48.964;9.406;2024-01-30T00:14:17;0.30;99.90
13344;DHT22;6741;48.964;9.406;2024-01-30T00:16:44;0.30;99.90
13344;DHT22;6741;48.964;9.406;2024-01-30T00:19:11;0.30;99.90
13344;DHT22;6741;48.964;9.406;2024-01-30T00:21:38;0.30;99.90
13344;DHT22;6741;48.964;9.406;2024-01-30T00:24:05;0.40;99.90
13344;DHT22;6741;48.964;9.406;2024-01-30T00:26:32;0.40;99.90
13344;DHT22;6741;48.964;9.406;2024-01-30T00:29:01;0.50;99.90
13344;DHT22;6741;48.964;9.406;2024-01-30T00:31:28;0.50;99.90
13344;DHT22;6741;48.964;9.406;2024-01-30T00:33:55;0.50;99.90
13344;DHT22;6741;48.964;9.406;2024-01-30T00:36:21;0.30;99.90
13344;DHT22;6741;48.964;9.406;2024-01-30T00:38:48;0.30;99.90
13344;DHT22;6741;48.964;9.406;2024-01-30T00:41:17;0.40;99.90
13344;DHT22;6741;48.964;9.406;2024-01-30T00:43:44;0.30;99.90
13344;DHT22;6741;48.964;9.406;2024-01-30T00:46:13;0.30;99.90
13344;DHT22;6741;48.964;9.406;2024-01-30T00:48:40;0.30;99.90
13344;DHT22;6741;48.964;9.406;2024-01-30T00:51:07;0.20;99.90
13344;DHT22;6741;48.964;9.406;2024-01-30T00:53:34;0.20;99.90
13344;DHT22;6741;48.964;9.406;2024-01-30T00:56:01;0.20;99.90
13344;DHT22;6741;48.964;9.406;2024-01-30T00:58:29;0.20;99.90
13344;DHT22;6741;48.964;9.406;2024-01-30T01:00:55;0.20;99.90
13344;DHT22;6741;48.964;9.406;2024-01-30T01:03:24;0.20;99.90
13344;DHT22;6741;48.964;9.406;2024-01-30T01:05:51;0.20;99.90
13344;DHT22;6741;48.964;9.406;2024-01-30T01:08:18;0.20;99.90
13344;DHT22;6741;48.964;9.406;2024-01-30T01:10:45;0.20;99.90
13344;DHT22;6741;48.964;9.406;2024-01-30T01:13:13;0.20;99.90
13344;DHT22;6741;48.964;9.406;2024-01-30T01:15:40;0.20;99.90
13344;DHT22;6741;48.964;9.406;2024-01-30T01:18:07;0.20;99.90
13344;DHT22;6741;48.964;9.406;2024-01-30T01:20:36;0.10;99.90
13344;DHT22;6741;48.964;9.406;2024-01-30T01:23:03;0.20;99.90
13344;DHT22;6741;48.964;9.406;2024-01-30T01:25:30;0.20;99.90
13344;DHT22;6741;48.964;9.406;2024-01-30T01:27:56;0.20;99.90
13344;DHT22;6741;48.964;9.406;2024-01-30T01:30:24;0.20;99.90
13344;DHT22;6741;48.964;9.406;2024-01-30T01:32:51;0.30;99.90
13344;DHT22;6741;48.964;9.406;2024-01-30T01:35:22;0.20;99.90
13344;DHT22;6741;48.964;9.406;2024-01-30T01:37:51;0.30;99.90
13344;DHT22;6741;48.964;9.406;2024-01-30T01:40:21;0.20;99.90
13344;DHT22;6741;48.964;9.406;2024-01-30T01:42:50;0.30;99.90
13344;DHT22;6741;48.964;9.406;2024-01-30T01:45:17;0.10;99.90
13344;DHT22;6741;48.964;9.406;2024-01-30T01:47:47;0.10;99.90
13344;DHT22;6741;48.964;9.406;2024-01-30T01:50:16;0.10;99.90
13344;DHT22;6741;48.964;9.406;2024-01-30T01:52:45;0.10;99.90
13344;DHT22;6741;48.964;9.406;2024-01-30T01:55:15;0.10;99.90
13344;DHT22;6741;48.964;9.406;2024-01-30T01:57:43;0.10;99.90
13344;DHT22;6741;48.964;9.406;2024-01-30T02:00:11;0.00;99.90
13344;DHT22;6741;48.964;9.406;2024-01-30T02:02:39;0.00;99.90
13344;DHT22;6741;48.964;9.406;2024-01-30T02:05:07;0.10;99.90
13344;DHT22;6741;48.964;9.406;2024-01-30T02:07:34;0.10;99.90
13344;DHT22;6741;48.964;9.406;2024-01-30T02:10:01;0.20;99.90
13344;DHT22;6741;48.964;9.406;2024-01-30T02:12:30;0.10;99.90
13344;DHT22;6741;48.964;9.406;2024-01-30T02:14:57;0.10;99.90
13344;DHT22;6741;48.964;9.406;2024-01-30T02:17:24;0.10;99.90
13344;DHT22;6741;48.964;9.406;2024-01-30T02:19:52;0.00;99.90
13344;DHT22;6741;48.964;9.406;2024-01-30T02:22:20;0.00;99.90
13344;DHT22;6741;48.964;9.406;2024-01-30T02:24:48;-0.10;99.90
13344;DHT22;6741;48.964;9.406;2024-01-30T02:27:18;-0.10;99.90
13344;DHT22;6741;48.964;9.406;2024-01-30T02:29:45;-0.10;99.90
13344;DHT22;6741;48.964;9.406;2024-01-30T02:32:12;-0.10;99.90
13344;DHT22;6741;48.964;9.406;2024-01-30T02:34:40;-0.10;99.90
13344;DHT22;6741;48.964;9.406;2024-01-30T02:37:06;-0.10;99.90
13344;DHT22;6741;48.964;9.406;2024-01-30T02:39:35;0.00;99.90
13344;DHT22;6741;48.964;9.406;2024-01-30T02:42:01;-0.10;99.90
13344;DHT22;6741;48.964;9.406;2024-01-30T02:44:28;-0.20;99.90
13344;DHT22;6741;48.964;9.406;2024-01-30T02:46:55;-0.20;99.90
13344;DHT22;6741;48.964;9.406;2024-01-30T02:49:22;-0.20;99.90
13344;DHT22;6741;48.964;9.406;2024-01-30T02:51:49;-0.20;99.90
13344;DHT22;6741;48.964;9.406;2024-01-30T02:54:16;-0.20;99.90
13344;DHT22;6741;48.964;9.406;2024-01-30T02:56:44;-0.20;99.90
13344;DHT22;6741;48.964;9.406;2024-01-30T02:59:11;-0.20;99.90
13344;DHT22;6741;48.964;9.406;2024-01-30T03:01:45;-0.20;99.90
13344;DHT22;6741;48.964;9.406;2024-01-30T03:04:12;-0.20;99.90
13344;DHT22;6741;48.964;9.406;2024-01-30T03:06:38;-0.20;99.90
13344;DHT22;6741;48.964;9.406;2024-01-30T03:09:05;-0.20;99.90
13344;DHT22;6741;48.964;9.406;2024-01-30T03:11:32;-0.20;99.90
13344;DHT22;6741;48.964;9.406;2024-01-30T03:14:00;-0.20;99.90
13344;DHT22;6741;48.964;9.406;2024-01-30T03:16:27;-0.20;99.90
13344;DHT22;6741;48.964;9.406;2024-01-30T03:18:54;-0.20;99.90
13344;DHT22;6741;48.964;9.406;2024-01-30T03:21:21;-0.10;99.90
13344;DHT22;6741;48.964;9.406;2024-01-30T03:23:48;-0.20;99.90
13344;DHT22;6741;48.964;9.406;2024-01-30T03:26:15;-0.20;99.90
13344;DHT22;6741;48.964;9.406;2024-01-30T03:28:42;-0.30;99.90
13344;DHT22;6741;48.964;9.406;2024-01-30T03:31:10;-0.30;99.90
13344;DHT22;6741;48.964;9.406;2024-01-30T03:33:37;-0.30;99.90
13344;DHT22;6741;48.964;9.406;2024-01-30T03:36:09;-0.30;99.90
13344;DHT22;6741;48.964;9.406;2024-01-30T03:38:36;-0.30;99.90
13344;DHT22;6741;48.964;9.406;2024-01-30T03:41:03;-0.30;99.90
13344;DHT22;6741;48.964;9.406;2024-01-30T03:43:30;-0.20;99.90
13344;DHT22;6741;48.964;9.406;2024-01-30T03:45:57;-0.20;99.90
13344;DHT22;6741;48.964;9.406;2024-01-30T03:48:25;-0.20;99.90
13344;DHT22;6741;48.964;9.406;2024-01-30T03:50:52;-0.30;99.90
13344;DHT22;6741;48.964;9.406;2024-01-30T03:53:19;-0.30;99.90
13344;DHT22;6741;48.964;9.406;2024-01-30T03:55:46;-0.30;99.90
13344;DHT22;6741;48.964;9.406;2024-01-30T03:58:13;-0.30;99.90
13344;DHT22;6741;48.964;9.406;2024-01-30T04:00:48;-0.50;99.90
13344;DHT22;6741;48.964;9.406;2024-01-30T04:03:15;-0.50;99.90
13344;DHT22;6741;48.964;9.406;2024-01-30T04:05:45;-0.50;99.90
13344;DHT22;6741;48.964;9.406;2024-01-30T04:08:12;-0.50;99.90
13344;DHT22;6741;48.964;9.406;2024-01-30T04:10:39;-0.40;99.90
13344;DHT22;6741;48.964;9.406;2024-01-30T04:13:06;-0.50;99.90
13344;DHT22;6741;48.964;9.406;2024-01-30T04:15:33;-0.50;99.90
13344;DHT22;6741;48.964;9.406;2024-01-30T04:18:00;-0.40;99.90
13344;DHT22;6741;48.964;9.406;2024-01-30T04:20:27;-0.50;99.90
13344;DHT22;6741;48.964;9.406;2024-01-30T04:22:56;-0.50;99.90
13344;DHT22;6741;48.964;9.406;2024-01-30T04:25:23;-0.40;99.90
13344;DHT22;6741;48.964;9.406;2024-01-30T04:27:50;-0.50;99.90
13344;DHT22;6741;48.964;9.406;2024-01-30T04:30:17;-0.50;99.90
13344;DHT22;6741;48.964;9.406;2024-01-30T04:32:44;-0.60;99.90
13344;DHT22;6741;48.964;9.406;2024-01-30T04:35:11;-0.60;99.90
13344;DHT22;6741;48.964;9.406;2024-01-30T04:37:38;-0.60;99.90
13344;DHT22;6741;48.964;9.406;2024-01-30T04:40:07;-0.70;99.90
13344;DHT22;6741;48.964;9.406;2024-01-30T04:42:35;-0.60;99.90
13344;DHT22;6741;48.964;9.406;2024-01-30T04:45:02;-0.50;99.90
13344;DHT22;6741;48.964;9.406;2024-01-30T04:47:29;-0.50;99.90
13344;DHT22;6741;48.964;9.406;2024-01-30T04:49:56;-0.50;99.90
13344;DHT22;6741;48.964;9.406;2024-01-30T04:52:23;-0.50;99.90
13344;DHT22;6741;48.964;9.406;2024-01-30T04:54:50;-0.50;99.90
13344;DHT22;6741;48.964;9.406;2024-01-30T04:57:18;-0.60;99.90
13344;DHT22;6741;48.964;9.406;2024-01-30T04:59:45;-0.60;99.90
13344;DHT22;6741;48.964;9.406;2024-01-30T05:02:12;-0.50;99.90
13344;DHT22;6741;48.964;9.406;2024-01-30T05:04:41;-0.50;99.90
13344;DHT22;6741;48.964;9.406;2024-01-30T05:07:08;-0.50;99.90
13344;DHT22;6741;48.964;9.406;2024-01-30T05:09:35;-0.40;99.90
13344;DHT22;6741;48.964;9.406;2024-01-30T05:12:02;-0.40;99.90
13344;DHT22;6741;48.964;9.406;2024-01-30T05:14:30;-0.40;99.90
13344;DHT22;6741;48.964;9.406;2024-01-30T05:16:57;-0.40;99.90
13344;DHT22;6741;48.964;9.406;2024-01-30T05:19:24;-0.40;99.90
13344;DHT22;6741;48.964;9.406;2024-01-30T05:21:51;-0.50;99.90
13344;DHT22;6741;48.964;9.406;2024-01-30T05:24:18;-0.50;99.90
13344;DHT22;6741;48.964;9.406;2024-01-30T05:26:45;-0.60;99.90
13344;DHT22;6741;48.964;9.406;2024-01-30T05:29:12;-0.70;99.90
13344;DHT22;6741;48.964;9.406;2024-01-30T05:31:41;-0.80;99.90
13344;DHT22;6741;48.964;9.406;2024-01-30T05:34:08;-0.80;99.90
13344;DHT22;6741;48.964;9.406;2024-01-30T05:36:35;-0.80;99.90
13344;DHT22;6741;48.964;9.406;2024-01-30T05:39:02;-0.90;99.90
13344;DHT22;6741;48.964;9.406;2024-01-30T05:41:29;-0.90;99.90
13344;DHT22;6741;48.964;9.406;2024-01-30T05:43:56;-0.80;99.90
13344;DHT22;6741;48.964;9.406;2024-01-30T05:46:23;-0.80;99.90
13344;DHT22;6741;48.964;9.406;2024-01-30T05:48:52;-0.70;99.90
13344;DHT22;6741;48.964;9.406;2024-01-30T05:51:19;-0.50;99.90
13344;DHT22;6741;48.964;9.406;2024-01-30T05:53:49;-0.60;99.90
13344;DHT22;6741;48.964;9.406;2024-01-30T05:56:16;-0.60;99.90
13344;DHT22;6741;48.964;9.406;2024-01-30T05:58:43;-0.70;99.90
13344;DHT22;6741;48.964;9.406;2024-01-30T06:01:10;-0.60;99.90
13344;DHT22;6741;48.964;9.406;2024-01-30T06:03:37;-0.60;99.90
13344;DHT22;6741;48.964;9.406;2024-01-30T06:06:06;-0.60;99.90
13344;DHT22;6741;48.964;9.406;2024-01-30T06:08:36;-0.60;99.90
13344;DHT22;6741;48.964;9.406;2024-01-30T06:11:03;-0.70;99.90
13344;DHT22;6741;48.964;9.406;2024-01-30T06:13:30;-0.80;99.90
13344;DHT22;6741;48.964;9.406;2024-01-30T06:15:57;-0.80;99.90
13344;DHT22;6741;48.964;9.406;2024-01-30T06:18:24;-0.70;99.90
13344;DHT22;6741;48.964;9.406;2024-01-30T06:20:52;-0.70;99.90
13344;DHT22;6741;48.964;9.406;2024-01-30T06:23:20;-0.90;99.90
13344;DHT22;6741;48.964;9.406;2024-01-30T06:25:47;-1.10;99.90
13344;DHT22;6741;48.964;9.406;2024-01-30T06:28:14;-1.50;99.90
13344;DHT22;6741;48.964;9.406;2024-01-30T06:30:41;-1.70;99.90
13344;DHT22;6741;48.964;9.406;2024-01-30T06:33:11;-1.60;99.90
13344;DHT22;6741;48.964;9.406;2024-01-30T06:35:38;-1.50;99.90
13344;DHT22;6741;48.964;9.406;2024-01-30T06:38:05;-1.30;99.90
13344;DHT22;6741;48.964;9.406;2024-01-30T06:40:34;-1.20;99.90
13344;DHT22;6741;48.964;9.406;2024-01-30T06:43:01;-1.00;99.90
13344;DHT22;6741;48.964;9.406;2024-01-30T06:45:28;-1.00;99.90
13344;DHT22;6741;48.964;9.406;2024-01-30T06:47:55;-0.90;99.90
13344;DHT22;6741;48.964;9.406;2024-01-30T06:50:22;-0.90;99.90
13344;DHT22;6741;48.964;9.406;2024-01-30T06:52:48;-0.90;99.90
13344;DHT22;6741;48.964;9.406;2024-01-30T06:55:16;-0.90;99.90
13344;DHT22;6741;48.964;9.406;2024-01-30T06:57:44;-0.80;99.90
13344;DHT22;6741;48.964;9.406;2024-01-30T07:00:12;-0.80;99.90
13344;DHT22;6741;48.964;9.406;2024-01-30T07:02:40;-0.70;99.90
13344;DHT22;6741;48.964;9.406;2024-01-30T07:05:07;-0.70;99.90
13344;DHT22;6741;48.964;9.406;2024-01-30T07:07:34;-0.50;99.90
13344;DHT22;6741;48.964;9.406;2024-01-30T07:10:01;-0.40;99.90
13344;DHT22;6741;48.964;9.406;2024-01-30T07:12:30;-0.50;99.90
13344;DHT22;6741;48.964;9.406;2024-01-30T07:14:59;-0.60;99.90
13344;DHT22;6741;48.964;9.406;2024-01-30T07:17:26;-0.60;99.90
13344;DHT22;6741;48.964;9.406;2024-01-30T07:19:53;-0.60;99.90
13344;DHT22;6741;48.964;9.406;2024-01-30T07:22:20;-0.70;99.90
13344;DHT22;6741;48.964;9.406;2024-01-30T07:24:47;-0.80;99.90
13344;DHT22;6741;48.964;9.406;2024-01-30T07:27:15;-0.70;99.90
13344;DHT22;6741;48.964;9.406;2024-01-30T07:29:43;-0.60;99.90
13344;DHT22;6741;48.964;9.406;2024-01-30T07:32:11;-0.50;99.90
13344;DHT22;6741;48.964;9.406;2024-01-30T07:34:38;-0.40;99.90
13344;DHT22;6741;48.964;9.406;2024-01-30T07:37:08;-0.40;99.90
13344;DHT22;6741;48.964;9.406;2024-01-30T07:39:36;-0.40;99.90
13344;DHT22;6741;48.964;9.406;2024-01-30T07:42:03;-0.40;99.90
13344;DHT22;6741;48.964;9.406;2024-01-30T07:44:30;-0.40;99.90
13344;DHT22;6741;48.964;9.406;2024-01-30T07:46:57;-0.30;99.90
13344;DHT22;6741;48.964;9.406;2024-01-30T07:49:26;-0.30;99.90
13344;DHT22;6741;48.964;9.406;2024-01-30T07:51:53;-0.20;99.90
13344;DHT22;6741;48.964;9.406;2024-01-30T07:54:20;-0.20;99.90
13344;DHT22;6741;48.964;9.406;2024-01-30T07:56:47;-0.10;99.90
13344;DHT22;6741;48.964;9.406;2024-01-30T07:59:14;-0.10;99.90
13344;DHT22;6741;48.964;9.406;2024-01-30T08:01:41;-0.10;99.90
13344;DHT22;6741;48.964;9.406;2024-01-30T08:04:08;0.00;99.90
13344;DHT22;6741;48.964;9.406;2024-01-30T08:06:36;0.00;99.90
13344;DHT22;6741;48.964;9.406;2024-01-30T08:09:03;0.10;99.90
13344;DHT22;6741;48.964;9.406;2024-01-30T08:11:30;0.20;99.90
13344;DHT22;6741;48.964;9.406;2024-01-30T08:13:57;0.20;99.90
13344;DHT22;6741;48.964;9.406;2024-01-30T08:16:24;0.30;99.90
13344;DHT22;6741;48.964;9.406;2024-01-30T08:18:51;0.40;99.90
13344;DHT22;6741;48.964;9.406;2024-01-30T08:21:19;0.50;99.90
13344;DHT22;6741;48.964;9.406;2024-01-30T08:23:47;0.60;99.90
13344;DHT22;6741;48.964;9.406;2024-01-30T08:26:15;0.80;99.90
13344;DHT22;6741;48.964;9.406;2024-01-30T08:28:41;0.80;99.90
13344;DHT22;6741;48.964;9.406;2024-01-30T08:31:10;0.90;99.90
13344;DHT22;6741;48.964;9.406;2024-01-30T08:33:37;1.00;99.90
13344;DHT22;6741;48.964;9.406;2024-01-30T08:36:04;1.20;99.90
13344;DHT22;6741;48.964;9.406;2024-01-30T08:38:31;1.30;99.90
13344;DHT22;6741;48.964;9.406;2024-01-30T08:41:00;1.40;99.90
13344;DHT22;6741;48.964;9.406;2024-01-30T08:43:28;1.50;99.90
13344;DHT22;6741;48.964;9.406;2024-01-30T08:45:55;1.60;99.90
13344;DHT22;6741;48.964;9.406;2024-01-30T08:48:22;1.70;99.90
13344;DHT22;6741;48.964;9.406;2024-01-30T08:50:50;1.90;99.90
13344;DHT22;6741;48.964;9.406;2024-01-30T08:53:17;2.00;99.90
13344;DHT22;6741;48.964;9.406;2024-01-30T08:55:44;2.20;99.90
13344;DHT22;6741;48.964;9.406;2024-01-30T08:58:12;2.40;99.90
13344;DHT22;6741;48.964;9.406;2024-01-30T09:00:40;2.50;99.90
13344;DHT22;6741;48.964;9.406;2024-01-30T09:03:07;2.60;99.90
13344;DHT22;6741;48.964;9.406;2024-01-30T09:05:34;2.60;99.90
13344;DHT22;6741;48.964;9.406;2024-01-30T09:08:01;2.70;99.90
13344;DHT22;6741;48.964;9.406;2024-01-30T09:10:28;2.70;99.90
13344;DHT22;6741;48.964;9.406;2024-01-30T09:12:54;2.80;99.90
13344;DHT22;6741;48.964;9.406;2024-01-30T09:15:23;2.90;99.90
13344;DHT22;6741;48.964;9.406;2024-01-30T09:17:50;3.00;99.90
13344;DHT22;6741;48.964;9.406;2024-01-30T09:20:16;3.00;99.90
13344;DHT22;6741;48.964;9.406;2024-01-30T09:22:45;3.30;99.90
13344;DHT22;6741;48.964;9.406;2024-01-30T09:25:12;3.40;99.90
13344;DHT22;6741;48.964;9.406;2024-01-30T09:27:39;3.40;99.90
13344;DHT22;6741;48.964;9.406;2024-01-30T09:30:07;3.60;99.90
13344;DHT22;6741;48.964;9.406;2024-01-30T09:32:35;3.80;99.90
13344;DHT22;6741;48.964;9.406;2024-01-30T09:35:03;3.80;99.90
13344;DHT22;6741;48.964;9.406;2024-01-30T09:37:29;4.00;99.90
13344;DHT22;6741;48.964;9.406;2024-01-30T09:39:56;4.10;99.90
13344;DHT22;6741;48.964;9.406;2024-01-30T09:42:28;4.20;99.90
13344;DHT22;6741;48.964;9.406;2024-01-30T09:44:59;4.30;99.90
13344;DHT22;6741;48.964;9.406;2024-01-30T09:47:26;4.40;99.90
13344;DHT22;6741;48.964;9.406;2024-01-30T09:49:55;4.60;99.90
13344;DHT22;6741;48.964;9.406;2024-01-30T09:52:23;4.90;99.90
13344;DHT22;6741;48.964;9.406;2024-01-30T09:54:51;5.00;99.90
13344;DHT22;6741;48.964;9.406;2024-01-30T09:57:18;5.20;99.90
13344;DHT22;6741;48.964;9.406;2024-01-30T09:59:46;5.50;99.90
13344;DHT22;6741;48.964;9.406;2024-01-30T10:02:13;5.70;99.90
13344;DHT22;6741;48.964;9.406;2024-01-30T10:04:41;5.90;99.90
13344;DHT22;6741;48.964;9.406;2024-01-30T10:07:09;6.10;99.90
13344;DHT22;6741;48.964;9.406;2024-01-30T10:09:37;6.20;99.90
13344;DHT22;6741;48.964;9.406;2024-01-30T10:12:04;6.30;99.90
13344;DHT22;6741;48.964;9.406;2024-01-30T10:14:33;6.60;99.90
13344;DHT22;6741;48.964;9.406;2024-01-30T10:17:01;6.60;99.90
13344;DHT22;6741;48.964;9.406;2024-01-30T10:19:28;6.70;99.90
13344;DHT22;6741;48.964;9.406;2024-01-30T10:21:55;6.80;99.90
13344;DHT22;6741;48.964;9.406;2024-01-30T10:24:25;7.10;99.90
13344;DHT22;6741;48.964;9.406;2024-01-30T10:26:53;7.20;99.90
13344;DHT22;6741;48.964;9.406;2024-01-30T10:29:20;7.50;99.90
13344;DHT22;6741;48.964;9.406;2024-01-30T10:31:57;7.80;99.90
13344;DHT22;6741;48.964;9.406;2024-01-30T10:34:24;8.10;99.90
13344;DHT22;6741;48.964;9.406;2024-01-30T10:36:59;8.50;99.90
13344;DHT22;6741;48.964;9.406;2024-01-30T10:39:29;8.70;99.90
13344;DHT22;6741;48.964;9.406;2024-01-30T10:42:00;8.90;99.90
13344;DHT22;6741;48.964;9.406;2024-01-30T10:44:36;8.90;99.90
13344;DHT22;6741;48.964;9.406;2024-01-30T10:47:06;8.80;99.90
13344;DHT22;6741;48.964;9.406;2024-01-30T10:49:37;8.90;99.90
13344;DHT22;6741;48.964;9.406;2024-01-30T10:52:05;8.90;99.90
13344;DHT22;6741;48.964;9.406;2024-01-30T10:54:35;8.80;99.90
13344;DHT22;6741;48.964;9.406;2024-01-30T10:57:03;8.80;99.90
13344;DHT22;6741;48.964;9.406;2024-01-30T10:59:31;8.70;99.90
13344;DHT22;6741;48.964;9.406;2024-01-30T11:01:59;8.90;99.90
13344;DHT22;6741;48.964;9.406;2024-01-30T11:04:27;9.10;99.90
13344;DHT22;6741;48.964;9.406;2024-01-30T11:06:54;9.30;99.90
13344;DHT22;6741;48.964;9.406;2024-01-30T11:09:21;9.40;99.90
13344;DHT22;6741;48.964;9.406;2024-01-30T11:11:56;9.50;99.90
13344;DHT22;6741;48.964;9.406;2024-01-30T11:14:26;9.80;99.90
13344;DHT22;6741;48.964;9.406;2024-01-30T11:16:56;9.80;99.90
13344;DHT22;6741;48.964;9.406;2024-01-30T11:19:23;9.70;99.90
13344;DHT22;6741;48.964;9.406;2024-01-30T11:21:52;9.90;99.90
13344;DHT22;6741;48.964;9.406;2024-01-30T11:24:20;9.90;99.90
13344;DHT22;6741;48.964;9.406;2024-01-30T11:26:48;10.00;99.90
13344;DHT22;6741;48.964;9.406;2024-01-30T11:29:17;10.10;99.90
13344;DHT22;6741;48.964;9.406;2024-01-30T11:31:54;10.00;99.90
13344;DHT22;6741;48.964;9.406;2024-01-30T11:34:21;9.80;99.90
13344;DHT22;6741;48.964;9.406;2024-01-30T11:36:52;10.00;99.90
13344;DHT22;6741;48.964;9.406;2024-01-30T11:39:20;9.90;99.90
13344;DHT22;6741;48.964;9.406;2024-01-30T11:41:50;9.80;99.90
13344;DHT22;6741;48.964;9.406;2024-01-30T11:44:19;9.90;99.90
13344;DHT22;6741;48.964;9.406;2024-01-30T11:46:47;10.20;99.90
13344;DHT22;6741;48.964;9.406;2024-01-30T11:49:15;10.30;99.90
13344;DHT22;6741;48.964;9.406;2024-01-30T11:51:42;10.20;99.90
13344;DHT22;6741;48.964;9.406;2024-01-30T11:54:09;10.10;99.90
13344;DHT22;6741;48.964;9.406;2024-01-30T11:56:37;10.20;99.90
13344;DHT22;6741;48.964;9.406;2024-01-30T11:59:04;10.40;99.90
13344;DHT22;6741;48.964;9.406;2024-01-30T12:01:32;10.60;99.90
13344;DHT22;6741;48.964;9.406;2024-01-30T12:04:00;10.80;99.90
13344;DHT22;6741;48.964;9.406;2024-01-30T12:06:26;10.80;99.90
13344;DHT22;6741;48.964;9.406;2024-01-30T12:08:57;10.90;99.90
13344;DHT22;6741;48.964;9.406;2024-01-30T12:11:25;11.00;99.90
13344;DHT22;6741;48.964;9.406;2024-01-30T12:13:53;11.10;99.90
13344;DHT22;6741;48.964;9.406;2024-01-30T12:16:20;11.10;99.90
13344;DHT22;6741;48.964;9.406;2024-01-30T12:18:48;11.20;99.90
13344;DHT22;6741;48.964;9.406;2024-01-30T12:21:16;11.30;99.90
13344;DHT22;6741;48.964;9.406;2024-01-30T12:23:44;11.40;99.90
13344;DHT22;6741;48.964;9.406;2024-01-30T12:26:11;11.40;99.90
13344;DHT22;6741;48.964;9.406;2024-01-30T12:28:47;11.30;99.90
13344;DHT22;6741;48.964;9.406;2024-01-30T12:31:14;11.30;99.90
13344;DHT22;6741;48.964;9.406;2024-01-30T12:33:41;11.20;99.90
13344;DHT22;6741;48.964;9.406;2024-01-30T12:36:09;11.20;99.90
13344;DHT22;6741;48.964;9.406;2024-01-30T12:38:38;11.20;99.90
13344;DHT22;6741;48.964;9.406;2024-01-30T12:41:07;11.30;99.90
13344;DHT22;6741;48.964;9.406;2024-01-30T12:43:34;11.30;99.90
13344;DHT22;6741;48.964;9.406;2024-01-30T12:46:01;11.40;99.90
13344;DHT22;6741;48.964;9.406;2024-01-30T12:48:29;11.60;99.90
13344;DHT22;6741;48.964;9.406;2024-01-30T12:56:54;11.80;99.90
13344;DHT22;6741;48.964;9.406;2024-01-30T12:59:22;11.80;99.90
13344;DHT22;6741;48.964;9.406;2024-01-30T13:01:48;11.80;99.90
13344;DHT22;6741;48.964;9.406;2024-01-30T13:04:15;11.70;99.90
13344;DHT22;6741;48.964;9.406;2024-01-30T13:06:42;11.80;99.90
13344;DHT22;6741;48.964;9.406;2024-01-30T13:09:09;11.80;99.90
13344;DHT22;6741;48.964;9.406;2024-01-30T13:11:36;11.90;99.90
13344;DHT22;6741;48.964;9.406;2024-01-30T13:14:04;11.90;99.90
13344;DHT22;6741;48.964;9.406;2024-01-30T13:16:31;11.80;99.90
13344;DHT22;6741;48.964;9.406;2024-01-30T13:18:58;12.20;99.90
13344;DHT22;6741;48.964;9.406;2024-01-30T13:21:26;12.80;99.90
13344;DHT22;6741;48.964;9.406;2024-01-30T13:23:53;13.20;99.90
13344;DHT22;6741;48.964;9.406;2024-01-30T13:26:20;13.60;99.90
13344;DHT22;6741;48.964;9.406;2024-01-30T13:28:47;14.00;99.90
13344;DHT22;6741;48.964;9.406;2024-01-30T13:31:15;13.90;99.90
13344;DHT22;6741;48.964;9.406;2024-01-30T13:33:42;13.50;99.90
13344;DHT22;6741;48.964;9.406;2024-01-30T13:36:10;13.50;99.90
13344;DHT22;6741;48.964;9.406;2024-01-30T13:38:38;13.60;99.90
13344;DHT22;6741;48.964;9.406;2024-01-30T13:41:06;14.30;99.90
13344;DHT22;6741;48.964;9.406;2024-01-30T13:43:34;15.00;99.90
13344;DHT22;6741;48.964;9.406;2024-01-30T13:46:02;15.20;99.90
13344;DHT22;6741;48.964;9.406;2024-01-30T13:48:31;15.00;99.90
13344;DHT22;6741;48.964;9.406;2024-01-30T13:50:58;14.50;99.90
13344;DHT22;6741;48.964;9.406;2024-01-30T13:53:25;14.20;99.90
13344;DHT22;6741;48.964;9.406;2024-01-30T13:55:53;14.90;99.90
13344;DHT22;6741;48.964;9.406;2024-01-30T13:58:20;15.10;99.90
13344;DHT22;6741;48.964;9.406;2024-01-30T14:00:47;14.40;99.90
13344;DHT22;6741;48.964;9.406;2024-01-30T14:03:14;13.90;99.90
13344;DHT22;6741;48.964;9.406;2024-01-30T14:05:42;13.60;99.90
13344;DHT22;6741;48.964;9.406;2024-01-30T14:08:10;13.20;99.90
13344;DHT22;6741;48.964;9.406;2024-01-30T14:10:37;13.00;99.90
13344;DHT22;6741;48.964;9.406;2024-01-30T14:13:04;12.90;99.90
13344;DHT22;6741;48.964;9.406;2024-01-30T14:15:31;12.90;99.90
13344;DHT22;6741;48.964;9.406;2024-01-30T14:17:58;12.90;99.90
13344;DHT22;6741;48.964;9.406;2024-01-30T14:20:25;12.80;99.90
13344;DHT22;6741;48.964;9.406;2024-01-30T14:22:53;12.70;99.90
13344;DHT22;6741;48.964;9.406;2024-01-30T14:25:21;12.50;99.90
13344;DHT22;6741;48.964;9.406;2024-01-30T14:27:48;12.40;99.90
13344;DHT22;6741;48.964;9.406;2024-01-30T14:30:15;12.30;99.90
13344;DHT22;6741;48.964;9.406;2024-01-30T14:32:42;12.20;99.90
13344;DHT22;6741;48.964;9.406;2024-01-30T14:35:10;12.10;99.90
13344;DHT22;6741;48.964;9.406;2024-01-30T14:37:38;11.90;99.90
13344;DHT22;6741;48.964;9.406;2024-01-30T14:40:09;11.80;99.90
13344;DHT22;6741;48.964;9.406;2024-01-30T14:42:36;11.70;99.90
13344;DHT22;6741;48.964;9.406;2024-01-30T14:45:03;11.60;99.90
13344;DHT22;6741;48.964;9.406;2024-01-30T14:47:30;11.40;99.90
13344;DHT22;6741;48.964;9.406;2024-01-30T14:49:57;11.30;99.90
13344;DHT22;6741;48.964;9.406;2024-01-30T14:52:24;11.30;99.90
13344;DHT22;6741;48.964;9.406;2024-01-30T14:54:51;11.20;99.90
13344;DHT22;6741;48.964;9.406;2024-01-30T14:57:19;11.00;99.90
13344;DHT22;6741;48.964;9.406;2024-01-30T14:59:46;10.90;99.90
13344;DHT22;6741;48.964;9.406;2024-01-30T15:02:14;10.80;99.90
13344;DHT22;6741;48.964;9.406;2024-01-30T15:04:41;10.70;99.90
13344;DHT22;6741;48.964;9.406;2024-01-30T15:07:08;10.60;99.90
13344;DHT22;6741;48.964;9.406;2024-01-30T15:09:35;10.50;99.90
13344;DHT22;6741;48.964;9.406;2024-01-30T15:12:02;10.40;99.90
13344;DHT22;6741;48.964;9.406;2024-01-30T15:14:30;10.30;99.90
13344;DHT22;6741;48.964;9.406;2024-01-30T15:16:57;10.30;99.90
13344;DHT22;6741;48.964;9.406;2024-01-30T15:19:24;10.20;99.90
13344;DHT22;6741;48.964;9.406;2024-01-30T15:21:51;10.20;99.90
13344;DHT22;6741;48.964;9.406;2024-01-30T15:24:18;10.10;99.90
13344;DHT22;6741;48.964;9.406;2024-01-30T15:26:50;9.90;99.90
13344;DHT22;6741;48.964;9.406;2024-01-30T15:29:17;9.80;99.90
13344;DHT22;6741;48.964;9.406;2024-01-30T15:31:47;9.70;99.90
13344;DHT22;6741;48.964;9.406;2024-01-30T15:34:14;9.70;99.90
13344;DHT22;6741;48.964;9.406;2024-01-30T15:36:42;9.60;99.90
13344;DHT22;6741;48.964;9.406;2024-01-30T15:39:08;9.50;99.90
13344;DHT22;6741;48.964;9.406;2024-01-30T15:41:37;9.40;99.90
13344;DHT22;6741;48.964;9.406;2024-01-30T15:44:04;9.40;99.90
13344;DHT22;6741;48.964;9.406;2024-01-30T15:46:31;9.30;99.90
13344;DHT22;6741;48.964;9.406;2024-01-30T15:48:59;9.20;99.90
13344;DHT22;6741;48.964;9.406;2024-01-30T15:51:26;9.20;99.90
13344;DHT22;6741;48.964;9.406;2024-01-30T15:53:53;9.10;99.90
13344;DHT22;6741;48.964;9.406;2024-01-30T15:56:20;9.10;99.90
13344;DHT22;6741;48.964;9.406;2024-01-30T15:58:47;8.90;99.90
13344;DHT22;6741;48.964;9.406;2024-01-30T16:01:15;8.70;99.90